Time;durP1;ratioP1;P1;durP2;ratioP2;P2;SDS_P1;SDS_P2;PMS_P1;PMS_P2;Temp;Humidity;BMP_temperature;BMP_pressure;BME280_temperature;BME280_humidity;BME280_pressure;Samples;Min_cycle;Max_cycle;Signal;HPM_P1;HPM_P2
2021/06/25 00:02:23;;;;;;;19.23;12.27;;;19.10;99.90;;;;;;5049765;28;20542;-70
2021/06/25 00:04:49;;;;;;;18.23;11.00;;;19.20;99.90;;;;;;5043556;28;20794;-70
2021/06/25 00:07:17;;;;;;;14.03;11.43;;;19.30;99.90;;;;;;5047749;28;20564;-70
2021/06/25 00:09:44;;;;;;;16.70;9.60;;;19.30;99.90;;;;;;5052738;28;20986;-71
2021/06/25 00:12:13;;;;;;;14.90;8.73;;;19.30;99.90;;;;;;5048839;28;20475;-70
2021/06/25 00:14:40;;;;;;;12.23;9.43;;;19.20;99.90;;;;;;5049661;28;20553;-71
2021/06/25 00:17:07;;;;;;;13.63;10.80;;;19.20;99.90;;;;;;5050446;28;20443;-70
2021/06/25 00:19:34;;;;;;;17.30;10.00;;;19.10;99.90;;;;;;5050570;28;20475;-70
2021/06/25 00:22:01;;;;;;;17.07;11.23;;;19.10;99.90;;;;;;5049164;28;20448;-69
2021/06/25 00:24:28;;;;;;;16.40;10.63;;;19.10;99.90;;;;;;5046149;28;20552;-70
2021/06/25 00:26:55;;;;;;;14.73;10.50;;;19.10;99.90;;;;;;5053567;28;20483;-70
2021/06/25 00:29:24;;;;;;;15.13;11.63;;;19.20;99.90;;;;;;5057987;28;20499;-70
2021/06/25 00:31:51;;;;;;;17.20;10.03;;;19.10;99.90;;;;;;5049195;28;20581;-70
2021/06/25 00:34:19;;;;;;;13.83;8.87;;;19.10;99.90;;;;;;5053047;28;20546;-70
2021/06/25 00:36:46;;;;;;;12.20;9.13;;;19.10;99.90;;;;;;5047054;28;20577;-70
2021/06/25 00:39:13;;;;;;;14.60;9.93;;;19.10;99.90;;;;;;5053947;28;20705;-70
2021/06/25 00:41:40;;;;;;;14.63;8.50;;;19.00;99.90;;;;;;5052577;28;20594;-71
2021/06/25 00:44:15;;;;;;;12.70;8.73;;;18.70;99.90;;;;;;5045458;28;20478;-70
2021/06/25 00:46:44;;;;;;;12.87;9.70;;;18.80;99.90;;;;;;5050414;28;20497;-71
2021/06/25 00:49:11;;;;;;;11.57;8.57;;;18.80;99.90;;;;;;5055433;28;20507;-71
2021/06/25 00:51:38;;;;;;;16.50;10.30;;;18.90;99.90;;;;;;5049144;28;21125;-71
2021/06/25 00:54:07;;;;;;;13.23;8.87;;;19.00;99.90;;;;;;5050092;28;20520;-70
2021/06/25 00:56:34;;;;;;;16.73;10.70;;;19.10;99.90;;;;;;5050236;28;20447;-70
2021/06/25 00:59:01;;;;;;;14.07;8.97;;;19.00;99.90;;;;;;5054319;28;20486;-70
2021/06/25 01:01:28;;;;;;;15.30;12.00;;;19.10;99.90;;;;;;5049254;28;20540;-70
2021/06/25 01:03:56;;;;;;;12.70;8.30;;;19.10;99.90;;;;;;5046863;28;20542;-71
2021/06/25 01:06:24;;;;;;;13.70;9.67;;;19.10;99.90;;;;;;5046053;28;20503;-70
2021/06/25 01:08:52;;;;;;;16.27;10.43;;;19.00;99.90;;;;;;5055917;28;20529;-70
2021/06/25 01:11:19;;;;;;;13.40;7.93;;;19.10;99.90;;;;;;5054914;28;20479;-71
2021/06/25 01:13:46;;;;;;;13.50;9.73;;;19.10;99.90;;;;;;5044100;28;20450;-70
2021/06/25 01:16:14;;;;;;;14.60;9.17;;;19.10;99.90;;;;;;5056032;28;20512;-70
2021/06/25 01:18:42;;;;;;;17.57;9.83;;;19.10;99.90;;;;;;5052683;28;20474;-71
2021/06/25 01:21:11;;;;;;;14.23;9.60;;;19.10;99.90;;;;;;5053532;28;20466;-70
2021/06/25 01:23:40;;;;;;;18.73;10.00;;;18.80;99.90;;;;;;5046183;28;20454;-71
2021/06/25 01:26:07;;;;;;;18.00;10.43;;;18.80;99.90;;;;;;5049101;28;20490;-70
2021/06/25 01:28:34;;;;;;;14.40;9.20;;;18.80;99.90;;;;;;5055905;28;20574;-70
2021/06/25 01:31:03;;;;;;;19.10;10.43;;;18.70;99.90;;;;;;5045385;28;20455;-70
2021/06/25 01:33:30;;;;;;;12.90;9.43;;;18.60;99.90;;;;;;5047149;28;21031;-70
2021/06/25 01:35:57;;;;;;;15.10;10.60;;;18.50;99.90;;;;;;5054031;28;20530;-70
2021/06/25 01:38:26;;;;;;;13.07;9.50;;;18.40;99.90;;;;;;5052638;28;20541;-69
2021/06/25 01:40:54;;;;;;;26.10;12.50;;;18.40;99.90;;;;;;5055303;28;21260;-69
2021/06/25 01:43:22;;;;;;;19.03;12.03;;;18.30;99.90;;;;;;5047399;28;20483;-69
2021/06/25 01:45:50;;;;;;;17.20;11.53;;;18.30;99.90;;;;;;5057377;28;20450;-69
2021/06/25 01:48:17;;;;;;;24.97;10.80;;;18.30;99.90;;;;;;5047600;28;20773;-70
2021/06/25 01:50:45;;;;;;;16.00;10.43;;;18.20;99.90;;;;;;5053755;28;21048;-70
2021/06/25 01:53:15;;;;;;;20.50;11.70;;;18.30;99.90;;;;;;5045143;28;20548;-68
2021/06/25 01:55:44;;;;;;;19.60;12.80;;;18.20;99.90;;;;;;5046019;28;20459;-69
2021/06/25 01:58:13;;;;;;;13.30;9.60;;;18.10;99.90;;;;;;5054604;28;20575;-69
2021/06/25 02:00:41;;;;;;;22.93;11.23;;;18.00;99.90;;;;;;5049115;28;20483;-69
2021/06/25 02:03:08;;;;;;;21.87;11.87;;;17.80;99.90;;;;;;5043823;28;20890;-69
2021/06/25 02:05:35;;;;;;;19.30;11.20;;;17.80;99.90;;;;;;5046592;28;20471;-69
2021/06/25 02:08:03;;;;;;;24.30;13.13;;;17.70;99.90;;;;;;5052972;28;20890;-69
2021/06/25 02:10:30;;;;;;;18.37;11.50;;;17.50;99.90;;;;;;5047276;28;20498;-70
2021/06/25 02:12:58;;;;;;;15.47;10.70;;;17.20;99.90;;;;;;5050863;28;20469;-69
2021/06/25 02:15:26;;;;;;;16.07;10.83;;;17.30;99.90;;;;;;5056542;28;20530;-70
2021/06/25 02:17:53;;;;;;;23.03;14.07;;;17.20;99.90;;;;;;5055137;28;20908;-69
2021/06/25 02:20:20;;;;;;;21.47;11.50;;;17.30;99.90;;;;;;5057827;28;21752;-70
2021/06/25 02:22:47;;;;;;;17.60;11.90;;;17.30;99.90;;;;;;5058837;28;20811;-70
2021/06/25 02:25:14;;;;;;;14.03;11.20;;;17.20;99.90;;;;;;5050184;28;20890;-70
2021/06/25 02:27:42;;;;;;;18.93;12.07;;;17.00;99.90;;;;;;5049722;28;20483;-69
2021/06/25 02:30:16;;;;;;;20.47;10.33;;;17.00;99.90;;;;;;5046303;28;20550;-70
2021/06/25 02:32:43;;;;;;;20.70;12.23;;;16.80;99.90;;;;;;5048974;28;20494;-69
2021/06/25 02:35:11;;;;;;;18.53;11.13;;;16.80;99.90;;;;;;5053057;28;20982;-70
2021/06/25 02:37:39;;;;;;;19.50;11.90;;;16.70;99.90;;;;;;5051121;28;20979;-70
2021/06/25 02:40:08;;;;;;;20.13;13.00;;;16.70;99.90;;;;;;5044428;28;20602;-70
2021/06/25 02:42:35;;;;;;;20.07;11.40;;;16.80;99.90;;;;;;5048802;28;21173;-70
2021/06/25 02:45:03;;;;;;;25.20;13.10;;;16.80;99.90;;;;;;5046848;28;20506;-70
2021/06/25 02:47:32;;;;;;;18.53;11.70;;;16.80;99.90;;;;;;5051853;28;21061;-70
2021/06/25 02:49:59;;;;;;;16.13;10.83;;;16.70;99.90;;;;;;5053092;28;20470;-70
2021/06/25 02:52:26;;;;;;;16.53;11.73;;;16.60;99.90;;;;;;5055222;28;21043;-69
2021/06/25 02:54:53;;;;;;;18.27;10.10;;;16.60;99.90;;;;;;5051021;28;20536;-70
2021/06/25 02:57:20;;;;;;;20.87;15.63;;;16.60;99.90;;;;;;5046401;28;20469;-70
2021/06/25 02:59:47;;;;;;;22.50;12.57;;;16.60;99.90;;;;;;5042974;28;20562;-69
2021/06/25 03:02:14;;;;;;;24.70;14.30;;;16.40;99.90;;;;;;5049495;28;20513;-70
2021/06/25 03:04:42;;;;;;;25.23;14.27;;;16.50;99.90;;;;;;5056598;28;20508;-70
2021/06/25 03:07:09;;;;;;;20.53;11.57;;;16.50;99.90;;;;;;5058350;28;20578;-69
2021/06/25 03:09:37;;;;;;;23.23;10.93;;;16.60;99.90;;;;;;5061090;28;20546;-71
2021/06/25 03:12:05;;;;;;;20.00;11.80;;;16.60;99.90;;;;;;5052840;28;20467;-70
2021/06/25 03:14:32;;;;;;;19.13;11.30;;;16.50;99.90;;;;;;5061467;28;20540;-71
2021/06/25 03:16:59;;;;;;;17.53;11.47;;;16.40;99.90;;;;;;5059152;28;20534;-70
2021/06/25 03:19:26;;;;;;;15.40;10.93;;;16.50;99.90;;;;;;5059997;28;20453;-71
2021/06/25 03:21:54;;;;;;;18.60;10.73;;;16.60;99.90;;;;;;5064668;28;20564;-71
2021/06/25 03:24:21;;;;;;;15.57;9.87;;;16.50;99.90;;;;;;5058722;28;20530;-71
2021/06/25 03:26:48;;;;;;;17.07;10.33;;;16.30;99.90;;;;;;5063369;28;20474;-71
2021/06/25 03:29:15;;;;;;;20.23;12.43;;;16.10;99.90;;;;;;5056764;28;20603;-70
2021/06/25 03:31:42;;;;;;;15.57;10.03;;;16.00;99.90;;;;;;5046763;28;20478;-69
2021/06/25 03:34:09;;;;;;;26.63;12.13;;;16.00;99.90;;;;;;5051374;28;20972;-70
2021/06/25 03:36:36;;;;;;;17.23;9.67;;;16.00;99.90;;;;;;5055754;28;20475;-71
2021/06/25 03:39:05;;;;;;;17.10;10.50;;;16.10;99.90;;;;;;5059526;28;20599;-70
2021/06/25 03:41:32;;;;;;;16.03;10.10;;;16.00;99.90;;;;;;5061010;28;20450;-70
2021/06/25 03:43:59;;;;;;;19.67;12.10;;;16.00;99.90;;;;;;5054962;28;20454;-70
2021/06/25 03:46:26;;;;;;;17.83;10.97;;;16.00;99.90;;;;;;5058935;28;20491;-70
2021/06/25 03:48:53;;;;;;;17.67;10.20;;;16.00;99.90;;;;;;5061001;28;20487;-70
2021/06/25 03:51:20;;;;;;;14.77;9.93;;;16.00;99.90;;;;;;5060625;28;20494;-70
2021/06/25 03:53:48;;;;;;;16.20;11.70;;;16.00;99.90;;;;;;5053538;28;20459;-70
2021/06/25 03:56:16;;;;;;;14.80;11.30;;;15.90;99.90;;;;;;5057436;28;20531;-70
2021/06/25 03:58:45;;;;;;;19.77;11.70;;;15.90;99.90;;;;;;5054587;28;20485;-70
2021/06/25 04:01:12;;;;;;;17.73;12.33;;;15.70;99.90;;;;;;5053276;28;21134;-70
2021/06/25 04:03:40;;;;;;;12.13;9.10;;;15.80;99.90;;;;;;5051136;28;20818;-69
2021/06/25 04:06:08;;;;;;;18.77;12.07;;;15.90;99.90;;;;;;5044380;28;20562;-71
2021/06/25 04:08:36;;;;;;;17.00;11.10;;;15.70;99.90;;;;;;5059860;28;20632;-70
2021/06/25 04:11:04;;;;;;;17.73;14.57;;;15.80;99.90;;;;;;5055334;28;20897;-69
2021/06/25 04:13:36;;;;;;;23.80;12.27;;;16.00;99.90;;;;;;5059705;28;20485;-71
2021/06/25 04:16:03;;;;;;;23.87;15.27;;;16.10;99.90;;;;;;5049625;28;20835;-69
2021/06/25 04:18:30;;;;;;;17.53;13.43;;;16.30;99.90;;;;;;5052635;28;20491;-70
2021/06/25 04:20:58;;;;;;;18.83;13.23;;;16.30;99.90;;;;;;5051077;28;21280;-71
2021/06/25 04:23:25;;;;;;;16.90;11.30;;;16.30;99.90;;;;;;5051887;28;20464;-70
2021/06/25 04:25:52;;;;;;;13.57;9.37;;;16.40;99.90;;;;;;5053571;28;20810;-70
2021/06/25 04:28:20;;;;;;;17.33;10.03;;;16.40;99.90;;;;;;5054666;28;20644;-70
2021/06/25 04:30:48;;;;;;;14.77;8.60;;;16.50;99.90;;;;;;5050277;28;20461;-70
2021/06/25 04:33:16;;;;;;;14.47;9.33;;;16.60;99.90;;;;;;5054536;28;20568;-69
2021/06/25 04:35:45;;;;;;;13.57;8.20;;;16.60;99.90;;;;;;5056915;28;21379;-71
2021/06/25 04:38:12;;;;;;;14.93;9.43;;;16.60;99.90;;;;;;5055316;28;20487;-71
2021/06/25 04:40:41;;;;;;;14.57;10.00;;;16.70;99.90;;;;;;5062335;28;20474;-71
2021/06/25 04:43:09;;;;;;;18.70;9.93;;;16.80;99.90;;;;;;5061256;28;20521;-71
2021/06/25 04:45:37;;;;;;;12.00;7.67;;;16.90;99.90;;;;;;5062344;28;20970;-71
2021/06/25 04:48:09;;;;;;;8.53;7.30;;;17.00;99.90;;;;;;5064213;28;20580;-71
2021/06/25 04:50:36;;;;;;;14.37;8.23;;;16.90;99.90;;;;;;5056876;28;20526;-71
2021/06/25 04:53:04;;;;;;;12.17;7.90;;;16.90;99.90;;;;;;5057693;28;20495;-71
2021/06/25 04:55:40;;;;;;;13.60;9.07;;;16.90;99.90;;;;;;5058031;28;20540;-71
2021/06/25 04:58:09;;;;;;;11.43;8.90;;;16.80;99.90;;;;;;5052284;28;20497;-71
2021/06/25 05:00:37;;;;;;;9.17;6.67;;;17.00;99.90;;;;;;5055058;28;20565;-70
2021/06/25 05:03:06;;;;;;;9.73;7.60;;;17.00;99.90;;;;;;5056473;28;20463;-70
2021/06/25 05:05:34;;;;;;;13.30;8.13;;;16.90;99.90;;;;;;5058431;28;20494;-70
2021/06/25 05:08:01;;;;;;;10.70;7.77;;;17.00;99.90;;;;;;5055757;28;20556;-71
2021/06/25 05:10:28;;;;;;;11.47;8.40;;;17.10;99.90;;;;;;5064151;28;20486;-71
2021/06/25 05:12:55;;;;;;;11.63;8.03;;;17.00;99.90;;;;;;5057621;28;20460;-71
2021/06/25 05:15:22;;;;;;;18.07;8.50;;;17.20;99.90;;;;;;5063330;28;20522;-71
2021/06/25 05:17:50;;;;;;;10.30;7.00;;;17.30;99.90;;;;;;5063670;28;20479;-70
2021/06/25 05:20:19;;;;;;;14.00;7.37;;;17.40;99.90;;;;;;5066044;28;21021;-71
2021/06/25 05:22:46;;;;;;;15.13;8.90;;;17.50;99.90;;;;;;5057398;28;21214;-71
2021/06/25 05:25:14;;;;;;;18.37;8.47;;;17.80;99.90;;;;;;5070056;28;20967;-71
2021/06/25 05:27:41;;;;;;;14.67;7.97;;;18.00;99.90;;;;;;5063780;28;20455;-71
2021/06/25 05:30:10;;;;;;;11.70;8.20;;;18.20;99.90;;;;;;5065413;28;20506;-71
2021/06/25 05:32:37;;;;;;;12.13;7.57;;;18.40;99.90;;;;;;5059819;28;20808;-71
2021/06/25 05:35:05;;;;;;;12.63;8.50;;;18.90;99.90;;;;;;5058169;28;20485;-72
2021/06/25 05:37:33;;;;;;;11.53;7.40;;;19.20;99.90;;;;;;5061303;28;20491;-70
2021/06/25 05:40:00;;;;;;;14.17;7.67;;;19.20;99.90;;;;;;5063960;28;20517;-71
2021/06/25 05:42:27;;;;;;;12.57;7.40;;;19.00;99.90;;;;;;5062590;28;20446;-71
2021/06/25 05:44:54;;;;;;;11.13;7.77;;;19.10;99.90;;;;;;5065205;28;20443;-71
2021/06/25 05:47:21;;;;;;;13.90;8.20;;;19.40;99.90;;;;;;5064469;28;20486;-71
2021/06/25 05:49:48;;;;;;;10.40;8.70;;;19.70;99.90;;;;;;5065706;28;20486;-70
2021/06/25 05:52:15;;;;;;;11.97;8.67;;;19.40;99.90;;;;;;5057447;28;21014;-71
2021/06/25 05:54:44;;;;;;;13.10;8.53;;;19.00;99.90;;;;;;5071076;28;20509;-72
2021/06/25 05:57:11;;;;;;;14.63;7.73;;;19.50;99.90;;;;;;5073038;28;20473;-72
2021/06/25 05:59:37;;;;;;;16.40;7.30;;;19.80;99.90;;;;;;5066783;28;20490;-71
2021/06/25 06:02:05;;;;;;;11.73;7.10;;;19.90;99.90;;;;;;5065550;28;20467;-72
2021/06/25 06:04:32;;;;;;;8.37;6.77;;;20.20;99.90;;;;;;5058923;28;20491;-72
2021/06/25 06:07:01;;;;;;;12.00;8.13;;;20.40;99.90;;;;;;5063109;28;20516;-71
2021/06/25 06:09:27;;;;;;;15.30;8.43;;;20.30;99.90;;;;;;5057514;28;20484;-71
2021/06/25 06:11:56;;;;;;;12.87;7.80;;;20.50;99.90;;;;;;5058658;28;20951;-70
2021/06/25 06:14:23;;;;;;;8.63;5.67;;;20.60;99.90;;;;;;5055378;28;20459;-71
2021/06/25 06:16:50;;;;;;;12.20;8.43;;;20.60;99.90;;;;;;5054426;28;20475;-70
2021/06/25 06:19:17;;;;;;;12.80;8.20;;;20.70;99.90;;;;;;5059804;28;20482;-70
2021/06/25 06:32:50;;;;;;;11.57;8.63;;;21.40;99.90;;;;;;5028768;28;20439;-71
2021/06/25 06:35:17;;;;;;;13.30;8.97;;;22.00;99.90;;;;;;5059079;28;20436;-70
2021/06/25 06:37:48;;;;;;;17.77;11.43;;;22.00;99.90;;;;;;5068327;28;20796;-71
2021/06/25 06:40:19;;;;;;;14.33;10.00;;;21.90;99.90;;;;;;5063004;28;20455;-70
2021/06/25 06:42:48;;;;;;;15.17;9.40;;;21.90;99.90;;;;;;5055475;28;20456;-71
2021/06/25 06:45:16;;;;;;;12.53;7.63;;;21.90;99.90;;;;;;5064638;28;20455;-71
2021/06/25 06:47:44;;;;;;;12.30;8.77;;;22.70;99.90;;;;;;5051803;28;20489;-74
2021/06/25 06:50:12;;;;;;;9.77;6.43;;;23.00;99.90;;;;;;5064331;28;20930;-74
2021/06/25 06:52:42;;;;;;;14.90;8.10;;;23.20;99.90;;;;;;5053961;28;21038;-74
2021/06/25 06:55:11;;;;;;;10.60;6.80;;;23.00;99.90;;;;;;5055977;28;20442;-73
2021/06/25 06:57:38;;;;;;;11.90;8.07;;;22.80;99.90;;;;;;5064571;28;20955;-72
2021/06/25 07:00:10;;;;;;;9.07;6.60;;;22.50;99.90;;;;;;5056452;28;20918;-74
2021/06/25 07:02:37;;;;;;;12.40;7.53;;;22.30;99.90;;;;;;5057577;28;20455;-75
2021/06/25 07:05:06;;;;;;;7.73;6.13;;;22.60;99.90;;;;;;5060490;28;20457;-76
2021/06/25 07:07:33;;;;;;;9.27;5.97;;;22.30;99.90;;;;;;5055304;28;20463;-76
2021/06/25 07:10:01;;;;;;;10.30;6.57;;;22.50;99.90;;;;;;5056612;28;20486;-75
2021/06/25 07:12:28;;;;;;;11.80;6.93;;;22.80;99.90;;;;;;5063079;28;20858;-75
2021/06/25 07:14:55;;;;;;;14.60;6.23;;;22.80;99.90;;;;;;5055053;28;20520;-75
2021/06/25 07:17:23;;;;;;;6.03;4.73;;;22.90;99.60;;;;;;5059915;28;20442;-75
2021/06/25 07:19:51;;;;;;;5.00;3.43;;;23.10;96.40;;;;;;5053053;28;20474;-73
2021/06/25 07:22:18;;;;;;;6.27;4.50;;;23.00;92.70;;;;;;5059423;28;20455;-75
2021/06/25 07:24:45;;;;;;;4.87;3.70;;;23.50;91.30;;;;;;5064953;28;20872;-75
2021/06/25 07:27:12;;;;;;;6.93;4.97;;;23.50;90.20;;;;;;5056399;28;20448;-75
2021/06/25 07:29:39;;;;;;;8.80;4.23;;;23.20;90.10;;;;;;5060017;28;20518;-75
2021/06/25 07:32:07;;;;;;;5.90;5.03;;;22.40;91.40;;;;;;5058038;28;20959;-75
2021/06/25 07:34:35;;;;;;;6.80;5.13;;;22.40;94.30;;;;;;5056095;28;20844;-76
2021/06/25 07:37:03;;;;;;;6.00;4.30;;;23.10;93.90;;;;;;5058001;28;20448;-76
2021/06/25 07:39:30;;;;;;;10.20;4.43;;;23.70;91.90;;;;;;5063937;28;20508;-76
2021/06/25 07:41:57;;;;;;;9.93;5.83;;;23.00;93.20;;;;;;5055863;28;20501;-77
2021/06/25 07:44:24;;;;;;;9.10;5.60;;;23.30;92.60;;;;;;5055692;28;20494;-73
2021/06/25 07:46:51;;;;;;;5.70;4.20;;;24.10;91.50;;;;;;5057057;28;20452;-76
2021/06/25 07:49:17;;;;;;;5.60;3.97;;;24.50;87.50;;;;;;5056168;28;20624;-75
2021/06/25 07:51:46;;;;;;;11.80;6.43;;;24.20;89.20;;;;;;5063459;28;20491;-76
2021/06/25 07:54:13;;;;;;;7.50;5.67;;;24.70;89.40;;;;;;5064088;28;20556;-77
2021/06/25 07:56:40;;;;;;;6.30;5.07;;;25.00;87.20;;;;;;5066682;28;20800;-75
2021/06/25 07:59:07;;;;;;;8.60;4.47;;;24.20;83.20;;;;;;5054024;28;20483;-75
2021/06/25 08:01:34;;;;;;;9.00;4.43;;;24.60;83.30;;;;;;5060852;28;20494;-75
2021/06/25 08:04:01;;;;;;;5.47;4.43;;;24.30;81.70;;;;;;5056938;28;20884;-75
2021/06/25 08:09:51;;;;;;;8.33;5.10;;;24.70;76.40;;;;;;5055721;28;20938;-76
2021/06/25 08:12:18;;;;;;;7.30;5.07;;;25.00;79.00;;;;;;5069298;28;20447;-75
2021/06/25 08:14:45;;;;;;;5.40;4.67;;;25.00;78.40;;;;;;5059158;28;20471;-75
2021/06/25 08:17:13;;;;;;;5.40;3.43;;;25.10;79.50;;;;;;5054033;28;20460;-76
2021/06/25 08:19:41;;;;;;;7.67;5.00;;;24.80;76.00;;;;;;5058773;28;20479;-75
2021/06/25 08:22:08;;;;;;;6.40;4.50;;;24.70;75.80;;;;;;5056418;28;20472;-74
2021/06/25 08:24:35;;;;;;;7.70;5.30;;;25.00;77.50;;;;;;5058561;28;20475;-71
2021/06/25 08:27:04;;;;;;;6.50;5.30;;;24.80;80.90;;;;;;5055260;28;20761;-73
2021/06/25 08:29:31;;;;;;;7.20;4.93;;;24.80;81.80;;;;;;5067108;28;20474;-73
2021/06/25 08:31:58;;;;;;;12.37;6.00;;;24.80;83.50;;;;;;5057785;28;20452;-73
2021/06/25 08:34:25;;;;;;;10.63;6.67;;;24.60;84.20;;;;;;5054937;28;20816;-73
2021/06/25 08:36:52;;;;;;;10.33;7.10;;;24.30;85.80;;;;;;5057237;28;20566;-73
2021/06/25 08:39:20;;;;;;;10.17;6.40;;;24.70;86.30;;;;;;5054862;28;20548;-73
2021/06/25 08:41:47;;;;;;;8.80;5.40;;;25.00;88.00;;;;;;5062652;28;20469;-76
2021/06/25 08:50:59;;;;;;;9.13;7.10;;;26.20;88.40;;;;;;5053290;28;20458;-73
2021/06/25 08:53:27;;;;;;;10.13;7.13;;;26.60;87.70;;;;;;5067766;28;20451;-73
2021/06/25 08:55:54;;;;;;;10.47;7.67;;;26.50;88.60;;;;;;5053833;28;20460;-73
2021/06/25 08:58:22;;;;;;;11.47;7.20;;;26.30;90.10;;;;;;5058244;28;20478;-73
2021/06/25 09:00:49;;;;;;;9.40;8.10;;;25.90;91.20;;;;;;5063496;28;20465;-73
2021/06/25 09:03:21;;;;;;;9.80;7.40;;;25.70;92.50;;;;;;5059070;28;20830;-74
2021/06/25 09:05:48;;;;;;;15.33;8.60;;;25.10;93.40;;;;;;5056564;28;20442;-74
2021/06/25 09:08:27;;;;;;;14.73;8.87;;;24.80;93.80;;;;;;5063495;28;20443;-73
2021/06/25 09:10:56;;;;;;;12.53;9.13;;;24.90;95.00;;;;;;5056895;28;20478;-73
2021/06/25 09:13:32;;;;;;;12.63;8.20;;;25.40;95.30;;;;;;5062086;28;20493;-74
2021/06/25 09:15:59;;;;;;;13.53;7.73;;;25.80;93.90;;;;;;5058741;28;20539;-73
2021/06/25 09:18:27;;;;;;;22.07;9.53;;;26.00;94.20;;;;;;5062143;28;20504;-72
2021/06/25 09:20:56;;;;;;;15.50;8.23;;;25.50;95.40;;;;;;5052818;28;20545;-74
2021/06/25 09:23:27;;;;;;;14.10;8.40;;;25.80;96.10;;;;;;5054671;28;20456;-74
2021/06/25 09:25:58;;;;;;;14.50;8.33;;;25.70;94.50;;;;;;5062323;28;20455;-74
2021/06/25 09:28:29;;;;;;;11.37;8.30;;;26.20;94.50;;;;;;5058916;28;20978;-73
2021/06/25 09:30:56;;;;;;;10.73;8.30;;;26.50;93.90;;;;;;5060947;28;20615;-73
2021/06/25 09:33:23;;;;;;;8.57;6.50;;;26.20;93.50;;;;;;5065122;28;20844;-72
2021/06/25 09:35:52;;;;;;;11.33;7.70;;;26.20;93.10;;;;;;5051909;28;21014;-73
2021/06/25 09:38:33;;;;;;;11.90;8.33;;;26.10;92.70;;;;;;5059495;28;20459;-72
2021/06/25 09:41:00;;;;;;;17.10;7.73;;;25.90;93.20;;;;;;5061590;28;21014;-72
2021/06/25 09:43:33;;;;;;;14.20;9.43;;;25.50;93.80;;;;;;5056359;28;20574;-72
2021/06/25 09:46:04;;;;;;;9.93;7.60;;;25.00;95.50;;;;;;5058187;28;20746;-73
2021/06/25 09:48:52;;;;;;;15.83;8.87;;;25.20;96.00;;;;;;5056997;28;20455;-72
2021/06/25 09:51:19;;;;;;;13.30;8.70;;;25.40;95.90;;;;;;5054286;28;20450;-75
2021/06/25 09:54:03;;;;;;;15.97;9.30;;;25.90;95.70;;;;;;5059734;28;20468;-72
2021/06/25 09:56:31;;;;;;;11.50;8.27;;;25.80;96.90;;;;;;5061185;28;20530;-73
2021/06/25 09:59:45;;;;;;;13.20;9.83;;;25.50;96.60;;;;;;5059660;28;20454;-74
2021/06/25 10:02:31;;;;;;;16.57;9.60;;;25.50;95.90;;;;;;5050955;28;20924;-74
2021/06/25 10:05:00;;;;;;;13.10;8.53;;;25.70;96.90;;;;;;5053778;28;20455;-73
2021/06/25 10:07:29;;;;;;;10.30;9.10;;;25.60;96.70;;;;;;5059050;28;20457;-74
2021/06/25 10:09:58;;;;;;;12.00;9.47;;;25.50;98.20;;;;;;5050670;28;20734;-73
2021/06/25 10:12:26;;;;;;;17.93;10.70;;;25.10;98.10;;;;;;5059066;28;20840;-73
2021/06/25 10:14:55;;;;;;;21.73;8.73;;;24.60;98.60;;;;;;5066103;28;20523;-74
2021/06/25 10:17:27;;;;;;;11.07;8.37;;;24.20;99.20;;;;;;5064294;28;20871;-74
2021/06/25 10:19:58;;;;;;;10.47;8.00;;;24.30;98.90;;;;;;5054343;28;20555;-73
2021/06/25 10:22:28;;;;;;;12.70;8.93;;;24.50;98.20;;;;;;5056795;28;20475;-74
2021/06/25 10:24:55;;;;;;;11.30;8.10;;;24.80;98.20;;;;;;5056953;28;20930;-72
2021/06/25 10:27:24;;;;;;;12.90;9.10;;;25.10;99.90;;;;;;5053014;28;20535;-73
2021/06/25 10:29:52;;;;;;;11.67;7.10;;;25.20;98.60;;;;;;5057379;28;20587;-74
2021/06/25 10:32:19;;;;;;;12.53;8.50;;;25.30;96.90;;;;;;5059843;28;20489;-72
2021/06/25 10:34:47;;;;;;;14.70;9.20;;;25.00;96.70;;;;;;5060036;28;20438;-71
2021/06/25 10:37:20;;;;;;;13.13;8.67;;;24.80;98.00;;;;;;5067688;28;20474;-73
2021/06/25 10:39:48;;;;;;;11.10;9.00;;;24.60;98.50;;;;;;5062224;28;20538;-73
2021/06/25 10:42:15;;;;;;;10.37;7.27;;;24.30;99.80;;;;;;5056316;28;20452;-73
2021/06/25 10:44:45;;;;;;;11.23;8.23;;;23.80;99.90;;;;;;5063323;28;20439;-73
2021/06/25 10:47:31;;;;;;;15.80;9.60;;;23.50;99.90;;;;;;5063318;28;20979;-74
2021/06/25 10:50:25;;;;;;;18.70;9.50;;;23.30;99.90;;;;;;5055486;28;20537;-73
2021/06/25 10:53:14;;;;;;;12.70;7.47;;;23.10;99.90;;;;;;5047616;28;20456;-73
2021/06/25 10:55:48;;;;;;;10.77;8.50;;;23.10;99.90;;;;;;5058723;28;20810;-73
2021/06/25 10:58:22;;;;;;;10.43;8.80;;;22.70;99.90;;;;;;5050763;28;20493;-73
2021/06/25 11:00:55;;;;;;;11.97;7.40;;;23.00;99.90;;;;;;5053023;28;20459;-73
2021/06/25 11:03:38;;;;;;;11.23;8.40;;;23.30;99.90;;;;;;5059145;28;20454;-74
2021/06/25 11:06:06;;;;;;;9.27;7.70;;;23.50;99.90;;;;;;5058701;28;20972;-72
2021/06/25 11:08:33;;;;;;;13.33;9.97;;;24.00;99.90;;;;;;5069909;28;20493;-73
2021/06/25 11:11:00;;;;;;;14.43;9.67;;;25.20;99.90;;;;;;5059847;28;20483;-73
2021/06/25 11:13:29;;;;;;;11.80;9.80;;;26.70;99.90;;;;;;5069648;28;20442;-73
2021/06/25 11:15:59;;;;;;;22.13;9.97;;;27.60;98.00;;;;;;5055753;28;20452;-74
2021/06/25 11:18:27;;;;;;;14.93;10.63;;;28.60;95.60;;;;;;5053182;28;20810;-73
2021/06/25 11:20:55;;;;;;;16.57;10.17;;;28.90;93.40;;;;;;5052115;28;20554;-73
2021/06/25 11:23:26;;;;;;;14.07;11.07;;;29.40;92.10;;;;;;5052846;28;21009;-73
2021/06/25 11:25:56;;;;;;;12.30;8.53;;;29.10;91.50;;;;;;5054928;28;20451;-74
2021/06/25 11:28:37;;;;;;;14.57;10.30;;;29.20;90.70;;;;;;5055990;28;20474;-73
2021/06/25 11:31:18;;;;;;;14.63;10.83;;;28.40;91.80;;;;;;5065517;28;21128;-73
2021/06/25 11:33:53;;;;;;;18.83;11.63;;;28.30;92.10;;;;;;5065715;28;20854;-73
2021/06/25 11:36:30;;;;;;;12.87;10.60;;;27.80;93.50;;;;;;5063068;28;20435;-73
2021/06/25 11:39:07;;;;;;;12.20;9.93;;;27.70;92.60;;;;;;5065265;28;20475;-74
2021/06/25 11:41:36;;;;;;;18.13;9.80;;;28.10;92.00;;;;;;5056945;28;20470;-74
2021/06/25 11:44:05;;;;;;;13.97;10.10;;;28.00;91.70;;;;;;5067653;28;20450;-73
2021/06/25 11:46:34;;;;;;;14.30;9.87;;;27.10;93.20;;;;;;5058799;28;20483;-74
2021/06/25 11:49:03;;;;;;;13.80;10.13;;;27.00;94.70;;;;;;5054040;28;20521;-73
2021/06/25 11:51:38;;;;;;;12.53;10.00;;;26.50;94.10;;;;;;5060070;28;20541;-72
2021/06/25 11:54:06;;;;;;;15.17;10.83;;;25.80;95.10;;;;;;5060260;28;20459;-73
2021/06/25 11:56:34;;;;;;;13.30;9.63;;;26.00;96.30;;;;;;5065557;28;20505;-75
2021/06/25 11:59:04;;;;;;;15.00;10.83;;;26.30;95.60;;;;;;5066193;28;20516;-73
2021/06/25 12:01:34;;;;;;;10.60;8.50;;;27.10;94.10;;;;;;5064666;28;20466;-73
2021/06/25 12:04:01;;;;;;;11.20;8.40;;;27.40;93.90;;;;;;5066222;28;20447;-73
2021/06/25 12:06:29;;;;;;;12.73;9.00;;;27.30;93.20;;;;;;5060780;28;20574;-74
2021/06/25 12:09:01;;;;;;;13.00;9.50;;;28.60;91.90;;;;;;5066218;28;20539;-74
2021/06/25 12:11:30;;;;;;;12.70;9.40;;;29.10;90.60;;;;;;5054100;28;20477;-74
2021/06/25 12:14:03;;;;;;;15.40;10.40;;;28.40;90.00;;;;;;5064473;28;20496;-73
2021/06/25 12:16:31;;;;;;;12.90;9.60;;;27.30;92.20;;;;;;5063844;28;20446;-75
2021/06/25 12:19:00;;;;;;;10.83;9.50;;;26.90;92.00;;;;;;5058376;28;20466;-73
2021/06/25 12:21:28;;;;;;;13.50;9.40;;;26.50;92.70;;;;;;5056560;28;20484;-74
2021/06/25 12:23:57;;;;;;;12.13;9.00;;;26.70;93.00;;;;;;5065396;28;20513;-74
2021/06/25 12:26:25;;;;;;;11.37;8.50;;;26.80;92.00;;;;;;5054728;28;20537;-74
2021/06/25 12:28:54;;;;;;;15.07;10.23;;;26.60;91.80;;;;;;5063791;28;20561;-73
2021/06/25 12:31:23;;;;;;;12.73;8.77;;;25.90;92.80;;;;;;5057725;28;20507;-74
2021/06/25 12:33:53;;;;;;;12.90;8.73;;;25.90;93.30;;;;;;5061246;28;20780;-74
2021/06/25 12:36:22;;;;;;;11.83;8.50;;;26.30;94.50;;;;;;5066162;28;20444;-74
2021/06/25 12:38:52;;;;;;;12.07;9.47;;;26.50;92.70;;;;;;5066637;28;20610;-73
2021/06/25 12:41:19;;;;;;;11.20;8.10;;;26.70;93.10;;;;;;5061495;28;20451;-72
2021/06/25 12:43:47;;;;;;;14.70;7.50;;;26.80;92.40;;;;;;5062430;28;20552;-73
2021/06/25 12:46:16;;;;;;;9.77;7.73;;;26.80;92.30;;;;;;5062338;28;20501;-73
2021/06/25 12:48:47;;;;;;;12.30;8.80;;;26.50;91.90;;;;;;5054299;28;20507;-73
2021/06/25 12:51:15;;;;;;;15.43;9.60;;;26.20;92.40;;;;;;5053309;28;20491;-73
2021/06/25 12:53:49;;;;;;;11.83;9.20;;;25.80;93.00;;;;;;5062930;28;20986;-73
2021/06/25 12:56:18;;;;;;;10.60;8.27;;;25.70;93.60;;;;;;5061395;28;20506;-73
2021/06/25 12:58:47;;;;;;;11.17;8.63;;;25.80;93.20;;;;;;5061698;28;20845;-73
2021/06/25 13:01:14;;;;;;;11.60;7.50;;;25.60;93.50;;;;;;5064138;28;20527;-73
2021/06/25 13:03:44;;;;;;;10.97;8.50;;;25.60;95.70;;;;;;5065234;28;21061;-74
2021/06/25 13:06:33;;;;;;;9.37;7.70;;;25.50;94.60;;;;;;5070468;28;20477;-75